createdAt,value
2019-01-31T00:04:18.677Z,0.90
2019-01-31T00:10:39.882Z,0.90
2019-01-31T00:14:58.950Z,0.90
2019-01-31T00:19:30.420Z,0.90
2019-01-31T00:24:06.226Z,0.80
2019-01-31T00:28:25.973Z,0.80
2019-01-31T00:33:15.755Z,0.70
2019-01-31T00:37:34.801Z,0.60
2019-01-31T00:41:54.753Z,0.70
2019-01-31T00:46:17.986Z,0.60
2019-01-31T00:50:40.163Z,0.60
2019-01-31T00:55:11.238Z,0.60
2019-01-31T01:00:05.646Z,0.60
2019-01-31T01:05:00.902Z,0.50
2019-01-31T01:10:20.292Z,0.50
2019-01-31T01:16:43.928Z,0.50
2019-01-31T01:21:02.276Z,0.40
2019-01-31T01:25:20.645Z,0.40
2019-01-31T01:29:54.701Z,0.40
2019-01-31T01:34:17.431Z,0.40
2019-01-31T01:40:39.955Z,0.40
2019-01-31T01:44:59.625Z,0.40
2019-01-31T01:49:48.166Z,0.30
2019-01-31T01:54:06.197Z,0.20
2019-01-31T01:58:23.326Z,0.20
2019-01-31T02:02:45.709Z,0.20
2019-01-31T02:07:02.756Z,0.20
2019-01-31T02:11:22.768Z,0.20
2019-01-31T02:15:47.464Z,0.20
2019-01-31T02:20:09.249Z,0.30
2019-01-31T02:24:26.810Z,0.30
2019-01-31T02:28:48.730Z,0.20
2019-01-31T02:34:12.627Z,0.10
2019-01-31T02:39:05.819Z,0.00
2019-01-31T02:44:28.398Z,0.00
2019-01-31T02:48:46.726Z,-0.10
2019-01-31T02:53:05.625Z,-0.20
2019-01-31T02:57:34.835Z,-0.20
2019-01-31T03:01:56.658Z,-0.20
2019-01-31T03:10:33.229Z,-0.20
2019-01-31T03:14:47.148Z,-0.30
2019-01-31T03:19:34.210Z,-0.30
2019-01-31T03:26:58.215Z,-0.20
2019-01-31T03:31:18.347Z,-0.10
2019-01-31T03:35:32.942Z,0.00
2019-01-31T03:40:10.673Z,0.00
2019-01-31T03:44:29.310Z,0.00
2019-01-31T03:48:48.373Z,-0.10
2019-01-31T03:53:07.752Z,-0.10
2019-01-31T03:57:41.833Z,-0.20
2019-01-31T04:02:04.529Z,-0.20
2019-01-31T04:06:17.886Z,-0.20
2019-01-31T04:10:26.099Z,-0.40
2019-01-31T04:14:34.303Z,-0.40
2019-01-31T04:18:42.542Z,-0.40
2019-01-31T04:22:50.768Z,-0.40
2019-01-31T04:26:58.998Z,-0.40
2019-01-31T04:31:07.238Z,-0.40
2019-01-31T04:35:15.483Z,-0.40
2019-01-31T04:39:23.693Z,-0.40
2019-01-31T04:43:31.945Z,-0.50
2019-01-31T04:47:40.173Z,-0.60
2019-01-31T04:51:48.403Z,-0.60
2019-01-31T04:55:56.674Z,-0.70
2019-01-31T05:00:06.208Z,-0.60
2019-01-31T05:04:14.439Z,-0.50
2019-01-31T05:08:22.642Z,-0.50
2019-01-31T05:12:30.885Z,-0.70
2019-01-31T05:16:39.119Z,-0.80
2019-01-31T05:20:47.409Z,-0.80
2019-01-31T05:24:55.721Z,-0.60
2019-01-31T05:29:03.980Z,-0.60
2019-01-31T05:33:12.215Z,-0.60
2019-01-31T05:37:20.497Z,-0.70
2019-01-31T05:41:28.737Z,-0.60
2019-01-31T05:45:36.951Z,-0.50
2019-01-31T05:49:45.799Z,-0.50
2019-01-31T05:53:54.260Z,-0.50
2019-01-31T05:58:02.513Z,-0.60
2019-01-31T06:02:10.784Z,-0.50
2019-01-31T06:06:19.014Z,-0.60
2019-01-31T06:10:27.267Z,-0.60
2019-01-31T06:14:35.619Z,-0.60
2019-01-31T06:18:43.894Z,-0.70
2019-01-31T06:22:52.231Z,-0.60
2019-01-31T06:27:00.415Z,-0.70
2019-01-31T06:31:08.630Z,-0.70
2019-01-31T06:35:16.937Z,-0.70
2019-01-31T06:39:25.163Z,-0.70
2019-01-31T06:43:33.427Z,-0.80
2019-01-31T06:47:41.649Z,-0.80
2019-01-31T06:51:49.936Z,-0.80
2019-01-31T06:55:58.171Z,-0.80
2019-01-31T07:00:11.250Z,-0.80
2019-01-31T07:04:19.522Z,-0.70
2019-01-31T07:08:27.758Z,-0.70
2019-01-31T07:12:35.971Z,-0.80
2019-01-31T07:16:44.269Z,-0.90
2019-01-31T07:20:52.522Z,-0.90
2019-01-31T07:25:00.782Z,-0.90
2019-01-31T07:29:09.004Z,-0.80
2019-01-31T07:33:17.243Z,-0.90
2019-01-31T07:37:25.513Z,-0.90
2019-01-31T07:41:40.986Z,-0.80
2019-01-31T07:45:42.055Z,-0.70
2019-01-31T07:49:50.435Z,-0.70
2019-01-31T07:53:58.596Z,-0.70
2019-01-31T07:58:06.860Z,-0.80
2019-01-31T08:02:15.088Z,-0.80
2019-01-31T08:06:23.330Z,-0.70
2019-01-31T08:10:34.452Z,-0.60
2019-01-31T08:14:42.734Z,-0.50
2019-01-31T08:18:50.979Z,-0.50
2019-01-31T08:23:00.255Z,-0.50
2019-01-31T08:31:16.390Z,-0.40
2019-01-31T08:35:24.621Z,-0.30
2019-01-31T08:39:32.903Z,-0.30
2019-01-31T08:43:41.150Z,-0.30
2019-01-31T08:47:49.391Z,-0.30
2019-01-31T08:51:57.614Z,-0.20
2019-01-31T08:56:05.851Z,-0.10
2019-01-31T09:00:16.959Z,0.00
2019-01-31T09:04:25.181Z,0.00
2019-01-31T09:08:33.430Z,0.00
2019-01-31T09:12:41.666Z,0.10
2019-01-31T09:16:49.884Z,0.20
2019-01-31T09:21:03.265Z,0.30
2019-01-31T09:25:52.844Z,0.30
2019-01-31T09:30:32.483Z,0.40
2019-01-31T09:35:07.834Z,0.40
2019-01-31T09:41:35.918Z,0.50
2019-01-31T09:46:00.822Z,0.50
2019-01-31T09:51:19.554Z,0.70
2019-01-31T09:55:53.011Z,0.80
2019-01-31T10:03:19.237Z,0.80
2019-01-31T10:11:57.344Z,1.00
2019-01-31T10:16:22.743Z,1.10
2019-01-31T10:22:54.108Z,1.10
2019-01-31T10:27:10.942Z,1.20
2019-01-31T10:31:41.877Z,1.20
2019-01-31T10:38:02.591Z,1.30
2019-01-31T10:42:21.958Z,1.40
2019-01-31T10:48:47.438Z,1.50
2019-01-31T10:53:06.862Z,1.50
2019-01-31T10:58:22.476Z,1.60
2019-01-31T11:04:50.306Z,1.60
2019-01-31T11:09:09.289Z,1.80
2019-01-31T11:13:33.905Z,2.00
2019-01-31T11:17:53.893Z,2.10
2019-01-31T11:22:18.119Z,2.10
2019-01-31T11:26:56.987Z,2.20
2019-01-31T11:31:12.262Z,2.20
2019-01-31T11:37:36.907Z,2.20
2019-01-31T11:41:59.814Z,2.10
2019-01-31T11:46:19.405Z,2.10
2019-01-31T11:50:40.881Z,2.10
2019-01-31T11:55:01.385Z,2.20
2019-01-31T11:59:09.700Z,2.20
2019-01-31T12:03:18.058Z,2.30
2019-01-31T12:07:26.378Z,2.40
2019-01-31T12:11:34.655Z,2.50
2019-01-31T12:15:42.904Z,2.50
2019-01-31T12:19:51.138Z,2.60
2019-01-31T12:23:59.389Z,2.70
2019-01-31T12:28:07.687Z,2.90
2019-01-31T12:32:16.010Z,3.00
2019-01-31T12:36:24.226Z,3.10
2019-01-31T12:40:32.510Z,3.00
2019-01-31T12:44:40.754Z,3.10
2019-01-31T12:48:48.987Z,3.10
2019-01-31T12:52:57.206Z,3.10
2019-01-31T12:57:05.423Z,3.10
2019-01-31T13:01:13.704Z,3.00
2019-01-31T13:05:21.957Z,2.90
2019-01-31T13:09:30.208Z,2.80
2019-01-31T13:13:45.963Z,2.90
2019-01-31T13:17:46.749Z,2.90
2019-01-31T13:21:54.940Z,2.80
2019-01-31T13:26:03.171Z,2.80
2019-01-31T13:30:14.082Z,2.80
2019-01-31T13:34:22.347Z,2.80
2019-01-31T13:38:30.569Z,2.80
2019-01-31T13:42:38.786Z,2.80
2019-01-31T13:46:47.039Z,2.80
2019-01-31T13:50:55.309Z,2.70
2019-01-31T13:55:03.598Z,2.70
2019-01-31T13:59:11.806Z,2.70
2019-01-31T14:03:20.130Z,2.70
2019-01-31T14:07:28.395Z,2.60
2019-01-31T14:11:36.625Z,2.60
2019-01-31T14:15:44.862Z,2.60
2019-01-31T14:19:53.132Z,2.50
2019-01-31T14:24:01.374Z,2.50
2019-01-31T14:28:09.611Z,2.50
2019-01-31T14:32:17.833Z,2.50
2019-01-31T14:36:26.209Z,2.50
2019-01-31T14:40:34.335Z,2.50
2019-01-31T14:44:42.571Z,2.40
2019-01-31T14:48:50.822Z,2.50
2019-01-31T14:52:59.028Z,2.40
2019-01-31T14:57:07.347Z,2.40
2019-01-31T15:01:15.564Z,2.30
2019-01-31T15:05:23.865Z,2.40
2019-01-31T15:09:32.116Z,2.40
2019-01-31T15:13:40.370Z,2.40
2019-01-31T15:17:48.650Z,2.40
2019-01-31T15:21:56.869Z,2.40
2019-01-31T15:26:05.106Z,2.40
2019-01-31T15:30:15.955Z,2.40
2019-01-31T15:34:24.174Z,2.40
2019-01-31T15:38:32.437Z,2.40
2019-01-31T15:42:40.683Z,2.30
2019-01-31T15:46:48.887Z,2.30
2019-01-31T15:50:57.156Z,2.30
2019-01-31T15:55:06.639Z,2.20
2019-01-31T15:59:14.861Z,2.10
2019-01-31T16:03:24.298Z,2.20
2019-01-31T16:07:32.592Z,2.20
2019-01-31T16:11:40.794Z,2.20
2019-01-31T16:15:49.070Z,2.20
2019-01-31T16:19:57.291Z,2.20
2019-01-31T16:24:05.567Z,2.20
2019-01-31T16:28:13.826Z,2.10
2019-01-31T16:32:22.080Z,2.10
2019-01-31T16:36:30.334Z,2.10
2019-01-31T16:40:38.620Z,2.00
2019-01-31T16:44:46.871Z,1.90
2019-01-31T16:48:55.145Z,1.90
2019-01-31T16:53:03.433Z,1.90
2019-01-31T16:57:11.626Z,1.90
2019-01-31T17:01:19.854Z,1.90
2019-01-31T17:05:29.941Z,1.80
2019-01-31T17:09:39.400Z,1.70
2019-01-31T17:13:46.473Z,1.70
2019-01-31T17:17:54.762Z,1.70
2019-01-31T17:22:03.010Z,1.60
2019-01-31T17:26:11.302Z,1.60
2019-01-31T17:30:21.274Z,1.50
2019-01-31T17:34:29.572Z,1.50
2019-01-31T17:38:37.853Z,1.50
2019-01-31T17:42:46.091Z,1.50
2019-01-31T17:46:54.354Z,1.50
2019-01-31T17:51:02.577Z,1.50
2019-01-31T17:55:12.537Z,1.50
2019-01-31T17:59:20.878Z,1.40
2019-01-31T18:03:29.037Z,1.40
2019-01-31T18:07:37.314Z,1.40
2019-01-31T18:11:45.579Z,1.40
2019-01-31T18:15:53.814Z,1.30
2019-01-31T18:20:02.052Z,1.30
2019-01-31T18:24:10.322Z,1.30
2019-01-31T18:32:26.544Z,1.30
2019-01-31T18:36:34.803Z,1.20
2019-01-31T18:40:43.029Z,1.20
2019-01-31T18:44:51.341Z,1.20
2019-01-31T18:48:59.601Z,1.10
2019-01-31T18:53:07.848Z,1.10
2019-01-31T18:57:16.108Z,1.00
2019-01-31T19:01:24.404Z,1.00
2019-01-31T19:05:32.701Z,0.90
2019-01-31T19:09:40.968Z,0.80
2019-01-31T19:13:49.218Z,0.80
2019-01-31T19:18:05.435Z,0.80
2019-01-31T19:22:05.733Z,0.80
2019-01-31T19:26:13.982Z,0.80
2019-01-31T19:30:27.768Z,0.80
2019-01-31T19:34:35.993Z,0.70
2019-01-31T19:38:44.270Z,0.70
2019-01-31T19:42:52.569Z,0.60
2019-01-31T19:47:00.805Z,0.60
2019-01-31T19:51:09.350Z,0.60
2019-01-31T19:55:17.603Z,0.70
2019-01-31T19:59:25.860Z,0.70
2019-01-31T20:03:34.165Z,0.60
2019-01-31T20:07:42.583Z,0.60
2019-01-31T20:11:50.855Z,0.60
2019-01-31T20:15:59.162Z,0.60
2019-01-31T20:20:09.283Z,0.50
2019-01-31T20:24:17.507Z,0.40
2019-01-31T20:28:25.769Z,0.40
2019-01-31T20:32:34.042Z,0.40
2019-01-31T20:36:42.291Z,0.40
2019-01-31T20:40:50.531Z,0.40
2019-01-31T20:44:58.805Z,0.40
2019-01-31T20:49:07.134Z,0.40
2019-01-31T20:53:15.385Z,0.40
2019-01-31T20:57:23.614Z,0.40
2019-01-31T21:01:31.867Z,0.40
2019-01-31T21:05:40.402Z,0.40
2019-01-31T21:09:48.624Z,0.40
2019-01-31T21:13:56.907Z,0.40
2019-01-31T21:18:05.872Z,0.30
2019-01-31T21:22:14.124Z,0.30
2019-01-31T21:26:24.697Z,0.30
2019-01-31T21:30:32.799Z,0.30
2019-01-31T21:34:41.017Z,0.30
2019-01-31T21:38:49.266Z,0.30
2019-01-31T21:42:57.543Z,0.30
2019-01-31T21:47:05.803Z,0.30
2019-01-31T21:51:14.051Z,0.20
2019-01-31T21:55:22.317Z,0.20
2019-01-31T21:59:30.574Z,0.20
2019-01-31T22:03:38.818Z,0.20
2019-01-31T22:07:47.060Z,0.30
2019-01-31T22:11:55.317Z,0.30
2019-01-31T22:20:11.635Z,0.30
2019-01-31T22:24:19.924Z,0.30
2019-01-31T22:28:28.173Z,0.40
2019-01-31T22:32:36.388Z,0.40
2019-01-31T22:36:44.710Z,0.50
2019-01-31T22:40:52.931Z,0.50
2019-01-31T22:49:09.246Z,0.60
2019-01-31T22:53:17.499Z,0.50
2019-01-31T23:01:37.657Z,0.50
2019-01-31T23:05:45.893Z,0.50
2019-01-31T23:09:54.211Z,0.50
2019-01-31T23:14:02.470Z,0.50
2019-01-31T23:18:10.686Z,0.50
2019-01-31T23:22:18.976Z,0.50
2019-01-31T23:26:27.203Z,0.60
2019-01-31T23:30:35.431Z,0.60
2019-01-31T23:34:43.643Z,0.60
2019-01-31T23:38:51.866Z,0.70
2019-01-31T23:43:00.126Z,0.60
2019-01-31T23:47:08.369Z,0.60
2019-01-31T23:51:16.605Z,0.60
2019-01-31T23:55:24.810Z,0.70
2019-01-31T23:59:33.068Z,0.70
